Polarstern — DBLK — position and weather

sailwx.info

Track history (hours):
 
Tides and Currents Weather Stations Pressure Air Temp Water Temp Dewpoint Dewpoint Depression Visibility Wind Speed Wind Dir Waves Ship Positions

Oceanographic research ship Polarstern (Germany)

Detailed information on ship capabilities available from University of Delaware's Ocean Information Center and ARCUS's ALIAS (Arctic Logistics Information and Support) project.

Last reported at 2016-Aug-27 23:00 UTC. Time now 2016-Aug-28 00:35 UTC.
Position N 79°36' W 018°12'.

Length 117.9 m; beam 25 m; draft 10.7 m.

MMSI: 211202460.

Wind from 340 at 8 knots

Barometer 1012.8 mb
Air temperature 4.8 ° C
Dewpoint -2.9 ° C
Water temperature -0.6 ° C

Date/timePositionNaut miles runAvg speedWind from/ knotsBaromVisibWave heightAir tempDewpointWater temp
2016-Aug-27 23:00N 79°36' W 018°12'3 3.2 340 / 81012.8 4.8-2.9-0.6
2016-Aug-27 22:00N 79°36' W 017°54'6 6.1 020 / 81012.2 4.0-1.4 1.9
2016-Aug-27 21:00N 79°42' W 017°48'1 1.1 030 / 141011.6 4.2-1.3 1.2
2016-Aug-27 20:00N 79°42' W 017°42'1 1.1 020 / 191010.9 4.7-1.4 1.4
2016-Aug-27 19:00N 79°42' W 017°36'1 1.1 030 / 161010.0 3.8-0.9 1.3
2016-Aug-27 18:00N 79°42' W 017°30'2 2.1 010 / 171009.327.0 4.9-1.1 2.1
2016-Aug-27 17:00N 79°42' W 017°18'3 3.2 020 / 171009.0 2.7-0.0 1.7
2016-Aug-27 16:00N 79°42' W 017°00'1 1.1 020 / 101008.8 2.0-1.1-0.9
2016-Aug-27 15:00N 79°42' W 016°54'0 0.0 280 / 61008.910.8 0.8-2.1-1.2
2016-Aug-27 14:00N 79°42' W 016°54'2 2.1 230 / 141009.2 0.7-1.7-1.1
2016-Aug-27 13:00N 79°42' W 016°42'6 6.1 230 / 161009.5 1.0-2.2-1.3
2016-Aug-27 12:00N 79°36' W 016°36'2 2.2 230 / 161010.427.0 0.5-2.0-1.1
2016-Aug-27 11:00N 79°36' W 016°24'2 2.2 230 / 171011.2 0.7-2.8-1.1
2016-Aug-27 10:00N 79°36' W 016°12'1 1.1 240 / 191011.5 1.2-3.0-1.2
2016-Aug-27 09:00N 79°36' W 016°06'6 6.4 230 / 121012.6 0.4-3.1-1.0
2016-Aug-27 08:00N 79°30' W 015°54'1 1.1 240 / 171013.6 1.4-3.2-0.8
2016-Aug-27 07:00N 79°30' W 016°00'0 0.0 240 / 171014.2 1.7-2.9-1.4
2016-Aug-27 06:00N 79°30' W 016°00'3 3.3 240 / 161015.110.8 1.1-2.4-0.9
2016-Aug-27 05:00N 79°30' W 016°18'4 4.4 250 / 161016.1 2.1-2.1-0.9
2016-Aug-27 04:00N 79°30' W 016°42'3 3.3 230 / 171016.9 0.8-2.2-1.3
2016-Aug-27 03:00N 79°30' W 017°00'5 5.5 230 / 191018.0 0.7-2.0-0.7
2016-Aug-27 02:00N 79°30' W 017°30'1 1.1 220 / 141019.0 0.1-1.8-1.1
2016-Aug-27 01:00N 79°30' W 017°36'5 5.5 230 / 161019.7 0.3-1.4-0.9
2016-Aug-27 00:00N 79°30' W 018°06'7 6.6 230 / 61020.7 0.5-1.2-0.8
2016-Aug-26 23:00N 79°30' W 018°42'7 6.6 330 / 21020.9 2.1-1.2-0.3
2016-Aug-26 22:00N 79°30' W 019°18'1 1.1 060 / 21021.2 2.7-1.2-0.1
2016-Aug-26 21:00N 79°30' W 019°24'1 1.1 260 / 21021.4 2.7-0.8 0.8
2016-Aug-26 20:00N 79°30' W 019°18'0 0.0 270 / 41021.5 2.7-1.1 0.6
2016-Aug-26 19:00N 79°30' W 019°18'6 6.0 230 / 41021.7 1.8-1.3-0.1
2016-Aug-26 18:00N 79°36' W 019°18'0 0.0 280 / 61021.910.8 2.5-1.1 0.9
2016-Aug-26 17:00N 79°36' W 019°18'0 0.0 270 / 101022.1 2.3-1.0 0.9
2016-Aug-26 16:00N 79°36' W 019°18'1 1.1 280 / 161022.1 3.8-1.5 0.8
2016-Aug-26 15:00N 79°36' W 019°24'1 1.1 270 / 101022.427.0 2.1-0.9 0.7
2016-Aug-26 14:00N 79°36' W 019°18'0 0.0 280 / 61023.1 1.5-0.5 0.7
2016-Aug-26 13:00N 79°36' W 019°18'1 1.1 250 / 61023.0 1.4-0.4 0.7
2016-Aug-26 12:00N 79°36' W 019°24'0 0.0 270 / 61023.110.8 1.1-0.5 0.7
2016-Aug-26 11:00N 79°36' W 019°24'0 0.0 260 / 41023.0 0.5-0.7 0.7
2016-Aug-26 10:00N 79°36' W 019°24'0 0.0 150 / 21023.1 0.2-0.7 0.8
2016-Aug-26 09:00N 79°36' W 019°24'0 0.0 340 / 21023.127.0 0.8-1.0 0.6
2016-Aug-26 08:00N 79°36' W 019°24'0 0.0 270 / 61023.0 0.1-1.0 0.5
2016-Aug-26 07:00N 79°36' W 019°24'0 0.0 230 / 61023.3 -0.1-1.1 0.7
2016-Aug-26 06:00N 79°36' W 019°24'1 1.1 290 / 21023.610.8 -0.3-1.2 0.5
2016-Aug-26 05:00N 79°36' W 019°18'0 0.0 110 / 41023.8 -0.3-1.2 0.5
2016-Aug-26 04:00N 79°36' W 019°18'1 1.1 110 / 61024.4 0.2-1.3 0.3
2016-Aug-26 03:00N 79°36' W 019°24'1 1.1 090 / 81024.7 0.7-1.4 0.2
2016-Aug-26 02:00N 79°36' W 019°18'2 2.2 090 / 61025.0 1.0-1.5-0.1
2016-Aug-26 01:00N 79°36' W 019°06'2 2.2 150 / 21025.3 0.3-0.9 0.4
2016-Aug-26 00:00N 79°36' W 019°18'0 0.0 090 / 41025.4 0.5-1.0 0.3
2016-Aug-25 23:00N 79°36' W 019°18'1 1.1 140 / 41025.3 0.1-0.7 0.2
2016-Aug-25 22:00N 79°36' W 019°24'6 6.0 150 / 61025.1 0.3-0.6 0.7
2016-Aug-25 21:00N 79°30' W 019°24'0 0.0 150 / 101024.7 0.3-0.6 0.7
2016-Aug-25 20:00N 79°30' W 019°24'1 1.1 150 / 101023.9 0.2-0.7 0.6
2016-Aug-25 19:00N 79°30' W 019°18'0 0.0 100 / 161022.9 0.4-0.8 0.2
2016-Aug-25 18:00N 79°30' W 019°18'0 0.0 110 / 61022.210.8 1.1-1.4 0.3
2016-Aug-25 17:00N 79°30' W 019°18'6 6.1 110 / 61021.2 2.4-2.7-0.3
2016-Aug-25 16:00N 79°36' W 019°12'6 6.0 150 / 41020.5 3.3-3.4-0.1
2016-Aug-25 15:00N 79°30' W 019°12'7 6.8 250 / 21019.910.8 4.1-1.5-0.5
2016-Aug-25 14:00N 79°36' W 019°30'0 0.0 999 1019.3 2.1-2.2 0.9
2016-Aug-25 13:00N 79°36' W 019°30'6 6.0 999 1018.5 3.7-2.6 0.8
2016-Aug-25 12:00N 79°30' W 019°30'2 2.2 050 / 41017.910.8 1.6-2.0 1.1
2016-Aug-25 11:00N 79°30' W 019°42'6 6.1 300 / 161016.7 3.6-2.6 0.8
2016-Aug-25 10:00N 79°24' W 019°48'6 6.0 290 / 171015.9 4.6-3.7 0.6
2016-Aug-25 09:00N 79°30' W 019°48'3 3.3 270 / 191015.327.0 4.0-4.1 0.6
2016-Aug-25 08:00N 79°30' W 019°30'3 3.3 280 / 171015.2 3.3-3.1 0.8
2016-Aug-25 07:00N 79°30' W 019°12'2 2.2 300 / 81015.4 1.5-3.1-0.3
2016-Aug-25 06:00N 79°30' W 019°00'6 6.0 240 / 81015.110.8 1.4-3.2-1.0
2016-Aug-25 05:00N 79°36' W 019°00'1 1.1 070 / 61015.7 0.4-3.5 0.3
2016-Aug-25 04:00N 79°36' W 018°54'1 1.1 180 / 61016.1 0.8-3.4-0.7
2016-Aug-25 03:00N 79°36' W 019°00'0 0.0 180 / 141016.0 0.2-3.6 0.1
2016-Aug-25 02:00N 79°36' W 019°00'0 0.0 190 / 121016.0 1.8-2.8 0.3
2016-Aug-25 01:00N 79°36' W 019°00'6 6.1 080 / 161015.3 1.3-1.7 0.5
2016-Aug-25 00:00N 79°30' W 018°54'6 6.1 060 / 211014.7 1.6-2.0 0.7
2016-Aug-24 23:00N 79°36' W 018°48'3 3.2 080 / 231013.0 2.5-2.0 0.7
2016-Aug-24 22:00N 79°36' W 019°06'7 6.8 090 / 231012.4 2.5-1.2 0.6
2016-Aug-24 21:00N 79°30' W 018°48'6 6.1 340 / 101010.4 7.5-2.3 0.4
2016-Aug-24 20:00N 79°36' W 018°42'4 4.3 340 / 101009.1 9.4-1.8-1.0
2016-Aug-24 19:00N 79°36' W 019°06'6 6.1 270 / 211008.4 4.1-0.4 0.1
2016-Aug-24 18:00N 79°30' W 019°00'7 7.4 270 / 251007.927.0 6.6-0.7-0.9
2016-Aug-24 17:00N 79°24' W 019°24'7 6.8 290 / 191008.2 8.1-1.0-0.5
2016-Aug-24 16:00N 79°30' W 019°06'6 6.1 290 / 291007.6 6.3-1.5-0.8
2016-Aug-24 15:00N 79°36' W 019°12'3 3.2 270 / 271008.227.0 5.8-1.2-0.7
2016-Aug-24 14:00N 79°36' W 018°54'3 3.2 300 / 81009.2 3.6-2.2-0.4
2016-Aug-24 13:00N 79°36' W 019°12'0 0.0 310 / 121009.6 3.7-1.3-0.6
2016-Aug-24 12:00N 79°36' W 019°12'6 6.1 280 / 211009.427.0 3.9-1.4-0.3
2016-Aug-24 11:00N 79°30' W 019°18'2 1.1 270 / 81009.8 3.2-1.3-0.4
2016-Aug-24 09:00N 79°30' W 019°30'6 6.4 260 / 141009.927.0 4.4-3.5 0.1
2016-Aug-24 08:00N 79°36' W 019°18'1 1.1 250 / 141010.1 2.9-3.0-0.2
2016-Aug-24 07:00N 79°36' W 019°12'1 1.1 340 / 41010.7 1.2-3.7-0.1
2016-Aug-24 06:00N 79°36' W 019°06'1 1.1 300 / 21011.227.0 0.8-3.4-0.7
2016-Aug-24 05:00N 79°36' W 019°12'3 3.2 210 / 41011.8 0.1-2.5-0.8
2016-Aug-24 04:00N 79°36' W 019°30'0 0.0 170 / 61012.3 -0.3-2.2 0.7
2016-Aug-24 03:00N 79°36' W 019°30'0 0.0 210 / 41012.8 -0.2-3.1 0.8
2016-Aug-24 02:00N 79°36' W 019°30'0 0.0 300 / 101013.4 0.3-3.7 1.0
2016-Aug-24 01:00N 79°36' W 019°30'0 0.0 300 / 81014.1 -0.3-3.5 1.2
2016-Aug-24 00:00N 79°36' W 019°30'0 0.0 300 / 61014.8 -0.5-3.2 1.3
2016-Aug-23 23:00N 79°36' W 019°30'0 0.0 280 / 141015.1 -0.4-2.0 1.2
2016-Aug-23 22:00N 79°36' W 019°30'1 1.1 280 / 121015.3 -0.6-1.5 1.0
2016-Aug-23 21:00N 79°36' W 019°24'6 6.1 290 / 61015.2 -0.5-0.8 1.1
2016-Aug-23 20:00N 79°30' W 019°30'1 0.4 310 / 61015.4 -0.5-0.8-0.1
2016-Aug-23 17:00N 79°30' W 019°24'0 0.0 120 / 61016.1 -0.3-0.7 0.6
2016-Aug-23 16:00N 79°30' W 019°24'6 6.1 100 / 101016.4 -0.6-1.0 1.0
2016-Aug-23 15:00N 79°36' W 019°30'2 2.2 100 / 101017.5 -0.1-1.1 1.2
2016-Aug-23 14:00N 79°36' W 019°18'6 3.0 100 / 81017.9 -0.4-1.1 0.4
2016-Aug-23 12:00N 79°42' W 019°18'6 6.1 140 / 61019.827.0 -0.0-2.6 1.1
2016-Aug-23 11:00N 79°36' W 019°24'0 0.0 100 / 61020.3 0.4-3.0 0.9
2016-Aug-23 09:00N 79°36' W 019°24'1 0.4 080 / 21021.010.8 0.7-0.9 0.6
2016-Aug-23 06:00N 79°36' W 019°30'1 1.1 090 / 21021.210.8 1.4-1.8 1.0
2016-Aug-23 05:00N 79°36' W 019°36'0 0.0 180 / 61020.9 1.0-1.7 0.7
2016-Aug-23 04:00N 79°36' W 019°36'6 1.5 120 / 61020.5 0.6-1.4 0.6
2016-Aug-23 00:00N 79°30' W 019°30'0 0.0 300 / 21017.2 2.3-2.9 0.4
2016-Aug-22 23:00N 79°30' W 019°30'1 1.1 050 / 21016.2 2.0-2.6 0.3
2016-Aug-22 22:00N 79°30' W 019°36'1 1.1 060 / 41015.2 2.2-2.9 0.2
2016-Aug-22 21:00N 79°30' W 019°42'0 0.0 120 / 41014.2 2.4-3.3 0.1
2016-Aug-22 20:00N 79°30' W 019°42'1 1.1 130 / 81013.4 2.1-2.3-0.0
2016-Aug-22 19:00N 79°30' W 019°48'6 6.0 280 / 171011.9 7.9-2.0-0.2
2016-Aug-22 18:00N 79°24' W 019°48'0 0.0 280 / 191010.727.0 9.2-2.9 0.1
2016-Aug-22 17:00N 79°24' W 019°48'6 6.0 290 / 271009.7 8.7-3.9 0.3
2016-Aug-22 16:00N 79°30' W 019°48'2 2.2 280 / 251009.5 7.7-2.4-0.1
2016-Aug-22 15:00N 79°30' W 019°36'1 1.1 270 / 271008.127.0 7.4-1.9 0.2
2016-Aug-22 14:00N 79°30' W 019°30'0 0.0 270 / 271007.1 8.2-3.2-0.0
2016-Aug-22 13:00N 79°30' W 019°30'6 6.0 250 / 231007.0 5.5-1.6-0.3
2016-Aug-22 12:00N 79°36' W 019°30'0 0.0 250 / 231006.227.0 4.9-1.6 0.2
2016-Aug-22 11:00N 79°36' W 019°30'1 1.1 260 / 171005.9 4.8-1.5 0.4
2016-Aug-22 10:00N 79°36' W 019°24'0 0.0 240 / 171005.4 5.8-2.3 0.7
2016-Aug-22 09:00N 79°36' W 019°24'6 6.1 250 / 191005.427.0 6.1-2.6 0.6
2016-Aug-22 08:00N 79°42' W 019°18'6 3.2 240 / 191005.3 4.3-2.7 1.2
2016-Aug-22 06:00N 79°42' W 018°42'0 0.0 290 / 61005.327.0 4.4-2.4-0.5
2016-Aug-22 05:00N 79°42' W 018°42'6 6.0 310 / 61005.0 5.1-3.1-0.1
2016-Aug-22 04:00N 79°36' W 018°42'0 0.0 240 / 251004.4 4.8-2.6 0.1
2016-Aug-22 03:00N 79°36' W 018°42'0 0.0 250 / 211005.0 4.3-1.7 1.0
2016-Aug-22 02:00N 79°36' W 018°42'6 6.0 240 / 251005.0 4.6-2.2 1.3
2016-Aug-22 01:00N 79°30' W 018°42'1 1.1 250 / 291004.9 5.5-3.1 0.5
2016-Aug-22 00:00N 79°30' W 018°48'2 2.2 260 / 211004.9 5.4-1.9-0.4
2016-Aug-21 23:00N 79°30' W 018°36'2 2.2 250 / 191005.1 4.7-2.9-0.7
2016-Aug-21 22:00N 79°30' W 018°24'7 6.8 270 / 141005.8 6.8-5.1-0.3
2016-Aug-21 21:00N 79°24' W 018°42'0 0.0 250 / 121005.9 6.8-5.2 0.2
2016-Aug-21 20:00N 79°24' W 018°42'1 1.1 230 / 141006.7 7.4-5.0 0.1
2016-Aug-21 19:00N 79°24' W 018°36'0 0.0 230 / 141006.8 6.7-4.1 0.2
2016-Aug-21 18:00N 79°24' W 018°36'6 6.0 280 / 191006.527.0 8.5-5.8-0.2
2016-Aug-21 17:00N 79°18' W 018°36'1 1.1 260 / 141007.3 7.9-5.0-0.0
2016-Aug-21 16:00N 79°18' W 018°30'0 0.0 260 / 121007.4 6.1-3.7 0.2
2016-Aug-21 15:00N 79°18' W 018°30'4 4.5 290 / 271006.927.0 6.4-4.1-0.0
2016-Aug-21 14:00N 79°18' W 018°06'1 1.1 300 / 251006.6 6.4-4.0-0.8
2016-Aug-21 13:00N 79°18' W 018°00'0 0.0 300 / 311005.8 5.9-3.4-0.3
2016-Aug-21 12:00N 79°18' W 018°00'0 0.0 290 / 191005.927.0 5.2-3.6-0.4
2016-Aug-21 11:00N 79°18' W 018°00'1 1.1 260 / 141005.8 4.9-3.0-0.6
2016-Aug-21 10:00N 79°18' W 017°54'7 6.9 300 / 271004.4 4.7-2.9-0.8
2016-Aug-21 09:00N 79°12' W 017°36'0 0.0 270 / 191003.910.8 5.5-3.3-0.4
2016-Aug-21 08:00N 79°12' W 017°36'1 1.1 260 / 141003.8 4.0-4.0-0.2
2016-Aug-21 07:00N 79°12' W 017°42'6 6.1 270 / 121003.2 4.4-4.5-0.1
2016-Aug-21 06:00N 79°18' W 017°48'3 3.3 220 / 121002.810.8 2.4-3.4-0.5
2016-Aug-21 05:00N 79°18' W 018°06'0 0.0 210 / 141002.2 1.5-3.4-0.0
2016-Aug-21 04:00N 79°18' W 018°06'0 0.0 210 / 121002.0 1.9-3.3 0.1
2016-Aug-21 03:00N 79°18' W 018°06'2 2.2 220 / 61002.2 0.8-3.6 0.1
2016-Aug-21 02:00N 79°18' W 018°18'1 1.1 240 / 41002.4 3.7-3.4-0.6
2016-Aug-21 01:00N 79°18' W 018°24'2 2.2 350 / 121001.9 2.9-2.4-0.7
2016-Aug-21 00:00N 79°18' W 018°36'6 6.0 310 / 231001.3 5.1-3.3-0.5
2016-Aug-20 23:00N 79°24' W 018°36'7 6.9 300 / 251001.0 4.7-2.4-0.7
2016-Aug-20 22:00N 79°18' W 018°18'9 9.0 330 / 101001.4 3.1-2.5-0.4
2016-Aug-20 21:00N 79°12' W 017°42'4 4.5 230 / 61001.3 0.7-3.8 0.1
2016-Aug-20 20:00N 79°12' W 017°18'1 1.1 140 / 81001.1 2.0-3.0-0.7
2016-Aug-20 19:00N 79°12' W 017°12'1 1.1 360 / 41000.5 4.0-3.7-0.7
2016-Aug-20 18:00N 79°12' W 017°06'0 0.0 340 / 41000.827.0 4.1-3.8-0.6
2016-Aug-20 17:00N 79°12' W 017°06'2 2.2 330 / 21001.0 2.7-2.1-0.5
2016-Aug-20 16:00N 79°12' W 016°54'3 3.4 190 / 121000.9 1.1-1.4-0.6
2016-Aug-20 15:00N 79°12' W 016°36'4 4.5 210 / 121001.427.0 1.5-1.5-0.5
2016-Aug-20 14:00N 79°12' W 016°12'6 5.6 200 / 101001.7 -0.8-2.2-0.7
2016-Aug-20 13:00N 79°12' W 015°42'2 2.2 250 / 61002.1 -1.4-2.4-1.5
2016-Aug-20 12:00N 79°12' W 015°54'1 1.1 310 / 21002.127.0 -1.8-2.8-0.9
2016-Aug-20 11:00N 79°12' W 016°00'1 1.1 320 / 61002.3 -2.0-2.9-0.7
2016-Aug-20 10:00N 79°12' W 016°06'2 2.2 330 / 81002.2 -1.6-3.2-0.5
2016-Aug-20 09:00N 79°12' W 016°18'1 1.1 320 / 61002.227.0 -0.6-3.4-0.9
2016-Aug-20 08:00N 79°12' W 016°12'2 2.2 300 / 41002.5 -2.0-3.2-0.9
2016-Aug-20 07:00N 79°12' W 016°24'0 0.0 320 / 21002.4 -1.1-2.5-0.9
2016-Aug-20 06:00N 79°12' W 016°24'0 0.0 330 / 41002.2 5.4 -1.5-2.1-0.8
2016-Aug-20 05:00N 79°12' W 016°24'1 1.1 320 / 41002.3 -0.2-1.8-0.7
2016-Aug-20 04:00N 79°12' W 016°30'1 0.6 150 1002.3 -1.6-1.8-1.2
2016-Aug-20 02:00N 79°12' W 016°36'1 1.1 230 / 61002.9 -1.7-2.3-0.6
2016-Aug-20 01:00N 79°12' W 016°42'1 1.1 200 / 81003.0 -1.8-2.1-0.9
2016-Aug-20 00:00N 79°12' W 016°48'1 1.1 200 / 81003.4 -0.4-1.5-0.3
2016-Aug-19 23:00N 79°12' W 016°54'2 2.2 190 / 61003.7 -1.6-2.5-0.0
2016-Aug-19 22:00N 79°12' W 017°06'0 0.0 230 / 21004.3 -0.5-2.7-0.0
2016-Aug-19 21:00N 79°12' W 017°06'0 0.0 220 / 61004.3 -0.7-2.6-0.0
2016-Aug-19 20:00N 79°12' W 017°06'0 0.0 180 / 81004.5 -1.2-1.8-0.0
2016-Aug-19 19:00N 79°12' W 017°06'0 0.0 150 / 61004.7 -1.1-1.2-0.0
2016-Aug-19 18:00N 79°12' W 017°06'0 0.0 200 / 61004.910.8 -0.6-1.1-0.1
2016-Aug-19 17:00N 79°12' W 017°06'0 0.0 170 / 81005.1 -0.7-1.1-0.2
2016-Aug-19 16:00N 79°12' W 017°06'0 0.0 160 / 81005.4 -0.7-1.2-0.5
2016-Aug-19 15:00N 79°12' W 017°06'2 2.2 170 / 81005.727.0 -0.5-1.1-0.7
2016-Aug-19 14:00N 79°12' W 017°18'1 1.1 160 / 61005.9 -0.8-1.3-0.9
2016-Aug-19 13:00N 79°12' W 017°24'0 0.0 160 / 81006.3 -1.1-1.5-0.8
2016-Aug-19 12:00N 79°12' W 017°24'1 1.1 150 / 101006.327.0 -1.1-1.9-0.9
2016-Aug-19 11:00N 79°12' W 017°30'3 3.4 140 / 81006.5 -1.8-2.4-0.8
2016-Aug-19 10:00N 79°12' W 017°12'6 6.4 140 / 81006.8 -1.7-3.3-0.6
2016-Aug-19 09:00N 79°06' W 017°00'7 6.9 150 / 61007.127.0 -2.3-3.0-0.7
2016-Aug-19 08:00N 79°00' W 016°42'6 6.1 150 / 81007.4 -2.1-3.1-0.5
2016-Aug-19 07:00N 78°54' W 016°36'7 6.9 140 / 81007.1 -2.1-3.1-0.2
2016-Aug-19 06:00N 78°48' W 016°18'5 4.7 140 / 81006.927.0 -1.8-2.8-0.0
2016-Aug-19 05:00N 78°48' W 015°54'6 6.1 130 / 61006.8 -1.5-2.2-0.5
2016-Aug-19 04:00N 78°42' W 016°00'1212.0 170 / 61006.7 -0.3-1.2-0.4
2016-Aug-19 03:00N 78°30' W 016°00'6 6.1 170 / 61006.8 -0.1-1.4 0.3
2016-Aug-19 02:00N 78°24' W 016°06'6 6.1 180 / 61006.7 -0.5-1.3 0.1
2016-Aug-19 01:00N 78°18' W 016°00'6 6.5 230 / 41006.5 -0.1-1.6 0.3
2016-Aug-19 00:00N 78°12' W 016°12'6 6.0 210 / 61006.2 1.4-1.6-0.1
2016-Aug-18 23:00N 78°06' W 016°12'0 0.0 220 / 81006.1 0.9-1.1-0.2
2016-Aug-18 22:00N 78°06' W 016°12'5 4.9 230 / 81005.6 1.1-1.0-0.2
2016-Aug-18 21:00N 78°06' W 016°36'6 6.0 230 / 101005.2 1.8-1.7-0.1
2016-Aug-18 20:00N 78°00' W 016°36'4 3.7 210 / 121004.9 0.1-1.2-0.1
2016-Aug-18 19:00N 78°00' W 016°54'8 7.8 200 / 81004.6 1.2-1.7-0.0
2016-Aug-18 18:00N 77°54' W 017°18'1 1.3 190 / 61004.127.0 -0.3-1.4 0.9
2016-Aug-18 17:00N 77°54' W 017°12'1 1.3 200 / 41003.8 -0.9-2.7 0.6
2016-Aug-18 16:00N 77°54' W 017°06'0 0.0 210 / 41003.5 -0.0-1.2 0.1
2016-Aug-18 15:00N 77°54' W 017°06'8 7.8 210 / 21003.227.0 -1.4-1.7 0.3
2016-Aug-18 14:00N 78°00' W 016°42'7 7.1 290 / 41003.3 -1.5-1.8-0.5
2016-Aug-18 13:00N 78°06' W 016°24'4 3.7 280 / 41002.9 -1.4-1.5-0.1
2016-Aug-18 12:00N 78°06' W 016°06'6 6.5 270 / 41002.927.0 -1.5-1.6-0.4
2016-Aug-18 11:00N 78°12' W 015°54'2 2.5 340 / 21002.8 -1.4-1.4-0.5
2016-Aug-18 10:00N 78°12' W 015°42'0 0.0 320 / 21002.7 -1.6-1.6-0.6
2016-Aug-18 09:00N 78°12' W 015°42'1 1.2 310 / 61002.610.8 -1.8-1.8-0.8
2016-Aug-18 08:00N 78°12' W 015°36'0 0.0 280 / 41002.4 -1.7-1.7-0.6
2016-Aug-18 07:00N 78°12' W 015°36'1 1.2 270 / 61002.2 -1.8-1.8-0.8
2016-Aug-18 06:00N 78°12' W 015°42'   220 / 61002.0 0.3 -2.0-2.0-0.5
Track history (hours):
 
Tides and Currents Weather Stations Pressure Air Temp Water Temp Dewpoint Dewpoint Depression Visibility Wind Speed Wind Dir Waves Ship Positions

Oceanographic research ship Polarstern (Germany)

Detailed information on ship capabilities available from University of Delaware's Ocean Information Center and ARCUS's ALIAS (Arctic Logistics Information and Support) project.

Last reported at 2016-Aug-27 23:00 UTC. Time now 2016-Aug-28 00:35 UTC.
Position N 79°36' W 018°12'.

Length 117.9 m; beam 25 m; draft 10.7 m.

MMSI: 211202460.

Wind from 340 at 8 knots

Barometer 1012.8 mb
Air temperature 4.8 ° C
Dewpoint -2.9 ° C
Water temperature -0.6 ° C

Date/timePositionNaut miles runAvg speedWind from/ knotsBaromVisibWave heightAir tempDewpointWater temp
2016-Aug-27 23:00N 79°36' W 018°12'3 3.2 340 / 81012.8 4.8-2.9-0.6
2016-Aug-27 22:00N 79°36' W 017°54'6 6.1 020 / 81012.2 4.0-1.4 1.9
2016-Aug-27 21:00N 79°42' W 017°48'1 1.1 030 / 141011.6 4.2-1.3 1.2
2016-Aug-27 20:00N 79°42' W 017°42'1 1.1 020 / 191010.9 4.7-1.4 1.4
2016-Aug-27 19:00N 79°42' W 017°36'1 1.1 030 / 161010.0 3.8-0.9 1.3
2016-Aug-27 18:00N 79°42' W 017°30'2 2.1 010 / 171009.327.0 4.9-1.1 2.1
2016-Aug-27 17:00N 79°42' W 017°18'3 3.2 020 / 171009.0 2.7-0.0 1.7
2016-Aug-27 16:00N 79°42' W 017°00'1 1.1 020 / 101008.8 2.0-1.1-0.9
2016-Aug-27 15:00N 79°42' W 016°54'0 0.0 280 / 61008.910.8 0.8-2.1-1.2
2016-Aug-27 14:00N 79°42' W 016°54'2 2.1 230 / 141009.2 0.7-1.7-1.1
2016-Aug-27 13:00N 79°42' W 016°42'6 6.1 230 / 161009.5 1.0-2.2-1.3
2016-Aug-27 12:00N 79°36' W 016°36'2 2.2 230 / 161010.427.0 0.5-2.0-1.1
2016-Aug-27 11:00N 79°36' W 016°24'2 2.2 230 / 171011.2 0.7-2.8-1.1
2016-Aug-27 10:00N 79°36' W 016°12'1 1.1 240 / 191011.5 1.2-3.0-1.2
2016-Aug-27 09:00N 79°36' W 016°06'6 6.4 230 / 121012.6 0.4-3.1-1.0
2016-Aug-27 08:00N 79°30' W 015°54'1 1.1 240 / 171013.6 1.4-3.2-0.8
2016-Aug-27 07:00N 79°30' W 016°00'0 0.0 240 / 171014.2 1.7-2.9-1.4
2016-Aug-27 06:00N 79°30' W 016°00'3 3.3 240 / 161015.110.8 1.1-2.4-0.9
2016-Aug-27 05:00N 79°30' W 016°18'4 4.4 250 / 161016.1 2.1-2.1-0.9
2016-Aug-27 04:00N 79°30' W 016°42'3 3.3 230 / 171016.9 0.8-2.2-1.3
2016-Aug-27 03:00N 79°30' W 017°00'5 5.5 230 / 191018.0 0.7-2.0-0.7
2016-Aug-27 02:00N 79°30' W 017°30'1 1.1 220 / 141019.0 0.1-1.8-1.1
2016-Aug-27 01:00N 79°30' W 017°36'5 5.5 230 / 161019.7 0.3-1.4-0.9
2016-Aug-27 00:00N 79°30' W 018°06'7 6.6 230 / 61020.7 0.5-1.2-0.8
2016-Aug-26 23:00N 79°30' W 018°42'7 6.6 330 / 21020.9 2.1-1.2-0.3
2016-Aug-26 22:00N 79°30' W 019°18'1 1.1 060 / 21021.2 2.7-1.2-0.1
2016-Aug-26 21:00N 79°30' W 019°24'1 1.1 260 / 21021.4 2.7-0.8 0.8
2016-Aug-26 20:00N 79°30' W 019°18'0 0.0 270 / 41021.5 2.7-1.1 0.6
2016-Aug-26 19:00N 79°30' W 019°18'6 6.0 230 / 41021.7 1.8-1.3-0.1
2016-Aug-26 18:00N 79°36' W 019°18'0 0.0 280 / 61021.910.8 2.5-1.1 0.9
2016-Aug-26 17:00N 79°36' W 019°18'0 0.0 270 / 101022.1 2.3-1.0 0.9
2016-Aug-26 16:00N 79°36' W 019°18'1 1.1 280 / 161022.1 3.8-1.5 0.8
2016-Aug-26 15:00N 79°36' W 019°24'1 1.1 270 / 101022.427.0 2.1-0.9 0.7
2016-Aug-26 14:00N 79°36' W 019°18'0 0.0 280 / 61023.1 1.5-0.5 0.7
2016-Aug-26 13:00N 79°36' W 019°18'1 1.1 250 / 61023.0 1.4-0.4 0.7
2016-Aug-26 12:00N 79°36' W 019°24'0 0.0 270 / 61023.110.8 1.1-0.5 0.7
2016-Aug-26 11:00N 79°36' W 019°24'0 0.0 260 / 41023.0 0.5-0.7 0.7
2016-Aug-26 10:00N 79°36' W 019°24'0 0.0 150 / 21023.1 0.2-0.7 0.8
2016-Aug-26 09:00N 79°36' W 019°24'0 0.0 340 / 21023.127.0 0.8-1.0 0.6
2016-Aug-26 08:00N 79°36' W 019°24'0 0.0 270 / 61023.0 0.1-1.0 0.5
2016-Aug-26 07:00N 79°36' W 019°24'0 0.0 230 / 61023.3 -0.1-1.1 0.7
2016-Aug-26 06:00N 79°36' W 019°24'1 1.1 290 / 21023.610.8 -0.3-1.2 0.5
2016-Aug-26 05:00N 79°36' W 019°18'0 0.0 110 / 41023.8 -0.3-1.2 0.5
2016-Aug-26 04:00N 79°36' W 019°18'1 1.1 110 / 61024.4 0.2-1.3 0.3
2016-Aug-26 03:00N 79°36' W 019°24'1 1.1 090 / 81024.7 0.7-1.4 0.2
2016-Aug-26 02:00N 79°36' W 019°18'2 2.2 090 / 61025.0 1.0-1.5-0.1
2016-Aug-26 01:00N 79°36' W 019°06'2 2.2 150 / 21025.3 0.3-0.9 0.4
2016-Aug-26 00:00N 79°36' W 019°18'0 0.0 090 / 41025.4 0.5-1.0 0.3
2016-Aug-25 23:00N 79°36' W 019°18'1 1.1 140 / 41025.3 0.1-0.7 0.2
2016-Aug-25 22:00N 79°36' W 019°24'6 6.0 150 / 61025.1 0.3-0.6 0.7
2016-Aug-25 21:00N 79°30' W 019°24'0 0.0 150 / 101024.7 0.3-0.6 0.7
2016-Aug-25 20:00N 79°30' W 019°24'1 1.1 150 / 101023.9 0.2-0.7 0.6
2016-Aug-25 19:00N 79°30' W 019°18'0 0.0 100 / 161022.9 0.4-0.8 0.2
2016-Aug-25 18:00N 79°30' W 019°18'0 0.0 110 / 61022.210.8 1.1-1.4 0.3
2016-Aug-25 17:00N 79°30' W 019°18'6 6.1 110 / 61021.2 2.4-2.7-0.3
2016-Aug-25 16:00N 79°36' W 019°12'6 6.0 150 / 41020.5 3.3-3.4-0.1
2016-Aug-25 15:00N 79°30' W 019°12'7 6.8 250 / 21019.910.8 4.1-1.5-0.5
2016-Aug-25 14:00N 79°36' W 019°30'0 0.0 999 1019.3 2.1-2.2 0.9
2016-Aug-25 13:00N 79°36' W 019°30'6 6.0 999 1018.5 3.7-2.6 0.8
2016-Aug-25 12:00N 79°30' W 019°30'2 2.2 050 / 41017.910.8 1.6-2.0 1.1
2016-Aug-25 11:00N 79°30' W 019°42'6 6.1 300 / 161016.7 3.6-2.6 0.8
2016-Aug-25 10:00N 79°24' W 019°48'6 6.0 290 / 171015.9 4.6-3.7 0.6
2016-Aug-25 09:00N 79°30' W 019°48'3 3.3 270 / 191015.327.0 4.0-4.1 0.6
2016-Aug-25 08:00N 79°30' W 019°30'3 3.3 280 / 171015.2 3.3-3.1 0.8
2016-Aug-25 07:00N 79°30' W 019°12'2 2.2 300 / 81015.4 1.5-3.1-0.3
2016-Aug-25 06:00N 79°30' W 019°00'6 6.0 240 / 81015.110.8 1.4-3.2-1.0
2016-Aug-25 05:00N 79°36' W 019°00'1 1.1 070 / 61015.7 0.4-3.5 0.3
2016-Aug-25 04:00N 79°36' W 018°54'1 1.1 180 / 61016.1 0.8-3.4-0.7
2016-Aug-25 03:00N 79°36' W 019°00'0 0.0 180 / 141016.0 0.2-3.6 0.1
2016-Aug-25 02:00N 79°36' W 019°00'0 0.0 190 / 121016.0 1.8-2.8 0.3
2016-Aug-25 01:00N 79°36' W 019°00'6 6.1 080 / 161015.3 1.3-1.7 0.5
2016-Aug-25 00:00N 79°30' W 018°54'6 6.1 060 / 211014.7 1.6-2.0 0.7
2016-Aug-24 23:00N 79°36' W 018°48'3 3.2 080 / 231013.0 2.5-2.0 0.7
2016-Aug-24 22:00N 79°36' W 019°06'7 6.8 090 / 231012.4 2.5-1.2 0.6
2016-Aug-24 21:00N 79°30' W 018°48'6 6.1 340 / 101010.4 7.5-2.3 0.4
2016-Aug-24 20:00N 79°36' W 018°42'4 4.3 340 / 101009.1 9.4-1.8-1.0
2016-Aug-24 19:00N 79°36' W 019°06'6 6.1 270 / 211008.4 4.1-0.4 0.1
2016-Aug-24 18:00N 79°30' W 019°00'7 7.4 270 / 251007.927.0 6.6-0.7-0.9
2016-Aug-24 17:00N 79°24' W 019°24'7 6.8 290 / 191008.2 8.1-1.0-0.5
2016-Aug-24 16:00N 79°30' W 019°06'6 6.1 290 / 291007.6 6.3-1.5-0.8
2016-Aug-24 15:00N 79°36' W 019°12'3 3.2 270 / 271008.227.0 5.8-1.2-0.7
2016-Aug-24 14:00N 79°36' W 018°54'3 3.2 300 / 81009.2 3.6-2.2-0.4
2016-Aug-24 13:00N 79°36' W 019°12'0 0.0 310 / 121009.6 3.7-1.3-0.6
2016-Aug-24 12:00N 79°36' W 019°12'6 6.1 280 / 211009.427.0 3.9-1.4-0.3
2016-Aug-24 11:00N 79°30' W 019°18'2 1.1 270 / 81009.8 3.2-1.3-0.4
2016-Aug-24 09:00N 79°30' W 019°30'6 6.4 260 / 141009.927.0 4.4-3.5 0.1
2016-Aug-24 08:00N 79°36' W 019°18'1 1.1 250 / 141010.1 2.9-3.0-0.2
2016-Aug-24 07:00N 79°36' W 019°12'1 1.1 340 / 41010.7 1.2-3.7-0.1
2016-Aug-24 06:00N 79°36' W 019°06'1 1.1 300 / 21011.227.0 0.8-3.4-0.7
2016-Aug-24 05:00N 79°36' W 019°12'3 3.2 210 / 41011.8 0.1-2.5-0.8
2016-Aug-24 04:00N 79°36' W 019°30'0 0.0 170 / 61012.3 -0.3-2.2 0.7
2016-Aug-24 03:00N 79°36' W 019°30'0 0.0 210 / 41012.8 -0.2-3.1 0.8
2016-Aug-24 02:00N 79°36' W 019°30'0 0.0 300 / 101013.4 0.3-3.7 1.0
2016-Aug-24 01:00N 79°36' W 019°30'0 0.0 300 / 81014.1 -0.3-3.5 1.2
2016-Aug-24 00:00N 79°36' W 019°30'0 0.0 300 / 61014.8 -0.5-3.2 1.3
2016-Aug-23 23:00N 79°36' W 019°30'0 0.0 280 / 141015.1 -0.4-2.0 1.2
2016-Aug-23 22:00N 79°36' W 019°30'1 1.1 280 / 121015.3 -0.6-1.5 1.0
2016-Aug-23 21:00N 79°36' W 019°24'6 6.1 290 / 61015.2 -0.5-0.8 1.1
2016-Aug-23 20:00N 79°30' W 019°30'1 0.4 310 / 61015.4 -0.5-0.8-0.1
2016-Aug-23 17:00N 79°30' W 019°24'0 0.0 120 / 61016.1 -0.3-0.7 0.6
2016-Aug-23 16:00N 79°30' W 019°24'6 6.1 100 / 101016.4 -0.6-1.0 1.0
2016-Aug-23 15:00N 79°36' W 019°30'2 2.2 100 / 101017.5 -0.1-1.1 1.2
2016-Aug-23 14:00N 79°36' W 019°18'6 3.0 100 / 81017.9 -0.4-1.1 0.4
2016-Aug-23 12:00N 79°42' W 019°18'6 6.1 140 / 61019.827.0 -0.0-2.6 1.1
2016-Aug-23 11:00N 79°36' W 019°24'0 0.0 100 / 61020.3 0.4-3.0 0.9
2016-Aug-23 09:00N 79°36' W 019°24'1 0.4 080 / 21021.010.8 0.7-0.9 0.6
2016-Aug-23 06:00N 79°36' W 019°30'1 1.1 090 / 21021.210.8 1.4-1.8 1.0
2016-Aug-23 05:00N 79°36' W 019°36'0 0.0 180 / 61020.9 1.0-1.7 0.7
2016-Aug-23 04:00N 79°36' W 019°36'6 1.5 120 / 61020.5 0.6-1.4 0.6
2016-Aug-23 00:00N 79°30' W 019°30'0 0.0 300 / 21017.2 2.3-2.9 0.4
2016-Aug-22 23:00N 79°30' W 019°30'1 1.1 050 / 21016.2 2.0-2.6 0.3
2016-Aug-22 22:00N 79°30' W 019°36'1 1.1 060 / 41015.2 2.2-2.9 0.2
2016-Aug-22 21:00N 79°30' W 019°42'0 0.0 120 / 41014.2 2.4-3.3 0.1
2016-Aug-22 20:00N 79°30' W 019°42'1 1.1 130 / 81013.4 2.1-2.3-0.0
2016-Aug-22 19:00N 79°30' W 019°48'6 6.0 280 / 171011.9 7.9-2.0-0.2
2016-Aug-22 18:00N 79°24' W 019°48'0 0.0 280 / 191010.727.0 9.2-2.9 0.1
2016-Aug-22 17:00N 79°24' W 019°48'6 6.0 290 / 271009.7 8.7-3.9 0.3
2016-Aug-22 16:00N 79°30' W 019°48'2 2.2 280 / 251009.5 7.7-2.4-0.1
2016-Aug-22 15:00N 79°30' W 019°36'1 1.1 270 / 271008.127.0 7.4-1.9 0.2
2016-Aug-22 14:00N 79°30' W 019°30'0 0.0 270 / 271007.1 8.2-3.2-0.0
2016-Aug-22 13:00N 79°30' W 019°30'6 6.0 250 / 231007.0 5.5-1.6-0.3
2016-Aug-22 12:00N 79°36' W 019°30'0 0.0 250 / 231006.227.0 4.9-1.6 0.2
2016-Aug-22 11:00N 79°36' W 019°30'1 1.1 260 / 171005.9 4.8-1.5 0.4
2016-Aug-22 10:00N 79°36' W 019°24'0 0.0 240 / 171005.4 5.8-2.3 0.7
2016-Aug-22 09:00N 79°36' W 019°24'6 6.1 250 / 191005.427.0 6.1-2.6 0.6
2016-Aug-22 08:00N 79°42' W 019°18'6 3.2 240 / 191005.3 4.3-2.7 1.2
2016-Aug-22 06:00N 79°42' W 018°42'0 0.0 290 / 61005.327.0 4.4-2.4-0.5
2016-Aug-22 05:00N 79°42' W 018°42'6 6.0 310 / 61005.0 5.1-3.1-0.1
2016-Aug-22 04:00N 79°36' W 018°42'0 0.0 240 / 251004.4 4.8-2.6 0.1
2016-Aug-22 03:00N 79°36' W 018°42'0 0.0 250 / 211005.0 4.3-1.7 1.0
2016-Aug-22 02:00N 79°36' W 018°42'6 6.0 240 / 251005.0 4.6-2.2 1.3
2016-Aug-22 01:00N 79°30' W 018°42'1 1.1 250 / 291004.9 5.5-3.1 0.5
2016-Aug-22 00:00N 79°30' W 018°48'2 2.2 260 / 211004.9 5.4-1.9-0.4
2016-Aug-21 23:00N 79°30' W 018°36'2 2.2 250 / 191005.1 4.7-2.9-0.7
2016-Aug-21 22:00N 79°30' W 018°24'7 6.8 270 / 141005.8 6.8-5.1-0.3
2016-Aug-21 21:00N 79°24' W 018°42'0 0.0 250 / 121005.9 6.8-5.2 0.2
2016-Aug-21 20:00N 79°24' W 018°42'1 1.1 230 / 141006.7 7.4-5.0 0.1
2016-Aug-21 19:00N 79°24' W 018°36'0 0.0 230 / 141006.8 6.7-4.1 0.2
2016-Aug-21 18:00N 79°24' W 018°36'6 6.0 280 / 191006.527.0 8.5-5.8-0.2
2016-Aug-21 17:00N 79°18' W 018°36'1 1.1 260 / 141007.3 7.9-5.0-0.0
2016-Aug-21 16:00N 79°18' W 018°30'0 0.0 260 / 121007.4 6.1-3.7 0.2
2016-Aug-21 15:00N 79°18' W 018°30'4 4.5 290 / 271006.927.0 6.4-4.1-0.0
2016-Aug-21 14:00N 79°18' W 018°06'1 1.1 300 / 251006.6 6.4-4.0-0.8
2016-Aug-21 13:00N 79°18' W 018°00'0 0.0 300 / 311005.8 5.9-3.4-0.3
2016-Aug-21 12:00N 79°18' W 018°00'0 0.0 290 / 191005.927.0 5.2-3.6-0.4
2016-Aug-21 11:00N 79°18' W 018°00'1 1.1 260 / 141005.8 4.9-3.0-0.6
2016-Aug-21 10:00N 79°18' W 017°54'7 6.9 300 / 271004.4 4.7-2.9-0.8
2016-Aug-21 09:00N 79°12' W 017°36'0 0.0 270 / 191003.910.8 5.5-3.3-0.4
2016-Aug-21 08:00N 79°12' W 017°36'1 1.1 260 / 141003.8 4.0-4.0-0.2
2016-Aug-21 07:00N 79°12' W 017°42'6 6.1 270 / 121003.2 4.4-4.5-0.1
2016-Aug-21 06:00N 79°18' W 017°48'3 3.3 220 / 121002.810.8 2.4-3.4-0.5
2016-Aug-21 05:00N 79°18' W 018°06'0 0.0 210 / 141002.2 1.5-3.4-0.0
2016-Aug-21 04:00N 79°18' W 018°06'0 0.0 210 / 121002.0 1.9-3.3 0.1
2016-Aug-21 03:00N 79°18' W 018°06'2 2.2 220 / 61002.2 0.8-3.6 0.1
2016-Aug-21 02:00N 79°18' W 018°18'1 1.1 240 / 41002.4 3.7-3.4-0.6
2016-Aug-21 01:00N 79°18' W 018°24'2 2.2 350 / 121001.9 2.9-2.4-0.7
2016-Aug-21 00:00N 79°18' W 018°36'6 6.0 310 / 231001.3 5.1-3.3-0.5
2016-Aug-20 23:00N 79°24' W 018°36'7 6.9 300 / 251001.0 4.7-2.4-0.7
2016-Aug-20 22:00N 79°18' W 018°18'9 9.0 330 / 101001.4 3.1-2.5-0.4
2016-Aug-20 21:00N 79°12' W 017°42'4 4.5 230 / 61001.3 0.7-3.8 0.1
2016-Aug-20 20:00N 79°12' W 017°18'1 1.1 140 / 81001.1 2.0-3.0-0.7
2016-Aug-20 19:00N 79°12' W 017°12'1 1.1 360 / 41000.5 4.0-3.7-0.7
2016-Aug-20 18:00N 79°12' W 017°06'0 0.0 340 / 41000.827.0 4.1-3.8-0.6
2016-Aug-20 17:00N 79°12' W 017°06'2 2.2 330 / 21001.0 2.7-2.1-0.5
2016-Aug-20 16:00N 79°12' W 016°54'3 3.4 190 / 121000.9 1.1-1.4-0.6
2016-Aug-20 15:00N 79°12' W 016°36'4 4.5 210 / 121001.427.0 1.5-1.5-0.5
2016-Aug-20 14:00N 79°12' W 016°12'6 5.6 200 / 101001.7 -0.8-2.2-0.7
2016-Aug-20 13:00N 79°12' W 015°42'2 2.2 250 / 61002.1 -1.4-2.4-1.5
2016-Aug-20 12:00N 79°12' W 015°54'1 1.1 310 / 21002.127.0 -1.8-2.8-0.9
2016-Aug-20 11:00N 79°12' W 016°00'1 1.1 320 / 61002.3 -2.0-2.9-0.7
2016-Aug-20 10:00N 79°12' W 016°06'2 2.2 330 / 81002.2 -1.6-3.2-0.5
2016-Aug-20 09:00N 79°12' W 016°18'1 1.1 320 / 61002.227.0 -0.6-3.4-0.9
2016-Aug-20 08:00N 79°12' W 016°12'2 2.2 300 / 41002.5 -2.0-3.2-0.9
2016-Aug-20 07:00N 79°12' W 016°24'0 0.0 320 / 21002.4 -1.1-2.5-0.9
2016-Aug-20 06:00N 79°12' W 016°24'0 0.0 330 / 41002.2 5.4 -1.5-2.1-0.8
2016-Aug-20 05:00N 79°12' W 016°24'1 1.1 320 / 41002.3 -0.2-1.8-0.7
2016-Aug-20 04:00N 79°12' W 016°30'1 0.6 150 1002.3 -1.6-1.8-1.2
2016-Aug-20 02:00N 79°12' W 016°36'1 1.1 230 / 61002.9 -1.7-2.3-0.6
2016-Aug-20 01:00N 79°12' W 016°42'1 1.1 200 / 81003.0 -1.8-2.1-0.9
2016-Aug-20 00:00N 79°12' W 016°48'1 1.1 200 / 81003.4 -0.4-1.5-0.3
2016-Aug-19 23:00N 79°12' W 016°54'2 2.2 190 / 61003.7 -1.6-2.5-0.0
2016-Aug-19 22:00N 79°12' W 017°06'0 0.0 230 / 21004.3 -0.5-2.7-0.0
2016-Aug-19 21:00N 79°12' W 017°06'0 0.0 220 / 61004.3 -0.7-2.6-0.0
2016-Aug-19 20:00N 79°12' W 017°06'0 0.0 180 / 81004.5 -1.2-1.8-0.0
2016-Aug-19 19:00N 79°12' W 017°06'0 0.0 150 / 61004.7 -1.1-1.2-0.0
2016-Aug-19 18:00N 79°12' W 017°06'0 0.0 200 / 61004.910.8 -0.6-1.1-0.1
2016-Aug-19 17:00N 79°12' W 017°06'0 0.0 170 / 81005.1 -0.7-1.1-0.2
2016-Aug-19 16:00N 79°12' W 017°06'0 0.0 160 / 81005.4 -0.7-1.2-0.5
2016-Aug-19 15:00N 79°12' W 017°06'2 2.2 170 / 81005.727.0 -0.5-1.1-0.7
2016-Aug-19 14:00N 79°12' W 017°18'1 1.1 160 / 61005.9 -0.8-1.3-0.9
2016-Aug-19 13:00N 79°12' W 017°24'0 0.0 160 / 81006.3 -1.1-1.5-0.8
2016-Aug-19 12:00N 79°12' W 017°24'1 1.1 150 / 101006.327.0 -1.1-1.9-0.9
2016-Aug-19 11:00N 79°12' W 017°30'3 3.4 140 / 81006.5 -1.8-2.4-0.8
2016-Aug-19 10:00N 79°12' W 017°12'6 6.4 140 / 81006.8 -1.7-3.3-0.6
2016-Aug-19 09:00N 79°06' W 017°00'7 6.9 150 / 61007.127.0 -2.3-3.0-0.7
2016-Aug-19 08:00N 79°00' W 016°42'6 6.1 150 / 81007.4 -2.1-3.1-0.5
2016-Aug-19 07:00N 78°54' W 016°36'7 6.9 140 / 81007.1 -2.1-3.1-0.2
2016-Aug-19 06:00N 78°48' W 016°18'5 4.7 140 / 81006.927.0 -1.8-2.8-0.0
2016-Aug-19 05:00N 78°48' W 015°54'6 6.1 130 / 61006.8 -1.5-2.2-0.5
2016-Aug-19 04:00N 78°42' W 016°00'1212.0 170 / 61006.7 -0.3-1.2-0.4
2016-Aug-19 03:00N 78°30' W 016°00'6 6.1 170 / 61006.8 -0.1-1.4 0.3
2016-Aug-19 02:00N 78°24' W 016°06'6 6.1 180 / 61006.7 -0.5-1.3 0.1
2016-Aug-19 01:00N 78°18' W 016°00'6 6.5 230 / 41006.5 -0.1-1.6 0.3
2016-Aug-19 00:00N 78°12' W 016°12'6 6.0 210 / 61006.2 1.4-1.6-0.1
2016-Aug-18 23:00N 78°06' W 016°12'0 0.0 220 / 81006.1 0.9-1.1-0.2
2016-Aug-18 22:00N 78°06' W 016°12'5 4.9 230 / 81005.6 1.1-1.0-0.2
2016-Aug-18 21:00N 78°06' W 016°36'6 6.0 230 / 101005.2 1.8-1.7-0.1
2016-Aug-18 20:00N 78°00' W 016°36'4 3.7 210 / 121004.9 0.1-1.2-0.1
2016-Aug-18 19:00N 78°00' W 016°54'8 7.8 200 / 81004.6 1.2-1.7-0.0
2016-Aug-18 18:00N 77°54' W 017°18'1 1.3 190 / 61004.127.0 -0.3-1.4 0.9
2016-Aug-18 17:00N 77°54' W 017°12'1 1.3 200 / 41003.8 -0.9-2.7 0.6
2016-Aug-18 16:00N 77°54' W 017°06'0 0.0 210 / 41003.5 -0.0-1.2 0.1
2016-Aug-18 15:00N 77°54' W 017°06'8 7.8 210 / 21003.227.0 -1.4-1.7 0.3
2016-Aug-18 14:00N 78°00' W 016°42'7 7.1 290 / 41003.3 -1.5-1.8-0.5
2016-Aug-18 13:00N 78°06' W 016°24'4 3.7 280 / 41002.9 -1.4-1.5-0.1
2016-Aug-18 12:00N 78°06' W 016°06'6 6.5 270 / 41002.927.0 -1.5-1.6-0.4
2016-Aug-18 11:00N 78°12' W 015°54'2 2.5 340 / 21002.8 -1.4-1.4-0.5
2016-Aug-18 10:00N 78°12' W 015°42'0 0.0 320 / 21002.7 -1.6-1.6-0.6
2016-Aug-18 09:00N 78°12' W 015°42'1 1.2 310 / 61002.610.8 -1.8-1.8-0.8
2016-Aug-18 08:00N 78°12' W 015°36'0 0.0 280 / 41002.4 -1.7-1.7-0.6
2016-Aug-18 07:00N 78°12' W 015°36'1 1.2 270 / 61002.2 -1.8-1.8-0.8
2016-Aug-18 06:00N 78°12' W 015°42'   220 / 61002.0 0.3 -2.0-2.0-0.5

Dump ship's entire track history